sensor_id;sensor_type;location;lat;lon;timestamp;P1;durP1;ratioP1;P2;durP2;ratioP2
17214;SDS011;8723;51.502;6.918;2023-02-01T00:02:12;20.13;;;12.10;;
17214;SDS011;8723;51.502;6.918;2023-02-01T00:04:39;22.42;;;11.93;;
17214;SDS011;8723;51.502;6.918;2023-02-01T00:07:08;17.57;;;9.93;;
17214;SDS011;8723;51.502;6.918;2023-02-01T00:09:35;22.42;;;10.40;;
17214;SDS011;8723;51.502;6.918;2023-02-01T00:12:02;21.25;;;9.65;;
17214;SDS011;8723;51.502;6.918;2023-02-01T00:14:29;23.17;;;9.98;;
17214;SDS011;8723;51.502;6.918;2023-02-01T00:17:03;17.17;;;8.55;;
17214;SDS011;8723;51.502;6.918;2023-02-01T00:19:30;17.23;;;8.70;;
17214;SDS011;8723;51.502;6.918;2023-02-01T00:21:57;17.67;;;9.07;;
17214;SDS011;8723;51.502;6.918;2023-02-01T00:24:25;19.00;;;9.25;;
17214;SDS011;8723;51.502;6.918;2023-02-01T00:26:53;21.42;;;9.05;;
17214;SDS011;8723;51.502;6.918;2023-02-01T00:29:20;19.20;;;8.75;;
17214;SDS011;8723;51.502;6.918;2023-02-01T00:31:49;20.85;;;9.10;;
17214;SDS011;8723;51.502;6.918;2023-02-01T00:34:16;14.98;;;7.72;;
17214;SDS011;8723;51.502;6.918;2023-02-01T00:36:43;17.48;;;7.82;;
17214;SDS011;8723;51.502;6.918;2023-02-01T00:39:11;19.25;;;7.28;;
17214;SDS011;8723;51.502;6.918;2023-02-01T00:41:39;18.95;;;7.50;;
17214;SDS011;8723;51.502;6.918;2023-02-01T00:44:07;18.80;;;7.72;;
17214;SDS011;8723;51.502;6.918;2023-02-01T00:46:34;19.42;;;6.78;;
17214;SDS011;8723;51.502;6.918;2023-02-01T00:49:01;21.13;;;7.25;;
17214;SDS011;8723;51.502;6.918;2023-02-01T00:51:28;19.53;;;7.27;;
17214;SDS011;8723;51.502;6.918;2023-02-01T00:53:56;15.68;;;6.50;;
17214;SDS011;8723;51.502;6.918;2023-02-01T00:56:23;15.57;;;6.80;;
17214;SDS011;8723;51.502;6.918;2023-02-01T00:58:53;17.63;;;6.75;;
17214;SDS011;8723;51.502;6.918;2023-02-01T01:01:21;18.38;;;7.18;;
17214;SDS011;8723;51.502;6.918;2023-02-01T01:03:49;17.02;;;7.22;;
17214;SDS011;8723;51.502;6.918;2023-02-01T01:06:18;14.55;;;7.28;;
17214;SDS011;8723;51.502;6.918;2023-02-01T01:08:46;12.70;;;6.50;;
17214;SDS011;8723;51.502;6.918;2023-02-01T01:11:15;17.58;;;7.28;;
17214;SDS011;8723;51.502;6.918;2023-02-01T01:13:43;16.15;;;6.65;;
17214;SDS011;8723;51.502;6.918;2023-02-01T01:16:12;13.95;;;6.75;;
17214;SDS011;8723;51.502;6.918;2023-02-01T01:18:39;16.98;;;7.53;;
17214;SDS011;8723;51.502;6.918;2023-02-01T01:21:07;17.92;;;7.60;;
17214;SDS011;8723;51.502;6.918;2023-02-01T01:23:35;13.02;;;6.82;;
17214;SDS011;8723;51.502;6.918;2023-02-01T01:26:04;16.10;;;6.82;;
17214;SDS011;8723;51.502;6.918;2023-02-01T01:28:32;15.45;;;7.55;;
17214;SDS011;8723;51.502;6.918;2023-02-01T01:30:59;16.05;;;7.03;;
17214;SDS011;8723;51.502;6.918;2023-02-01T01:33:27;17.98;;;7.55;;
17214;SDS011;8723;51.502;6.918;2023-02-01T01:35:55;14.35;;;7.70;;
17214;SDS011;8723;51.502;6.918;2023-02-01T01:38:22;13.75;;;7.20;;
17214;SDS011;8723;51.502;6.918;2023-02-01T01:40:49;15.15;;;7.80;;
17214;SDS011;8723;51.502;6.918;2023-02-01T01:43:18;17.05;;;7.90;;
17214;SDS011;8723;51.502;6.918;2023-02-01T01:45:47;15.57;;;8.02;;
17214;SDS011;8723;51.502;6.918;2023-02-01T01:48:16;18.88;;;8.10;;
17214;SDS011;8723;51.502;6.918;2023-02-01T01:50:46;18.00;;;8.05;;
17214;SDS011;8723;51.502;6.918;2023-02-01T01:53:16;13.95;;;7.72;;
17214;SDS011;8723;51.502;6.918;2023-02-01T01:55:45;17.52;;;7.63;;
17214;SDS011;8723;51.502;6.918;2023-02-01T01:58:14;15.00;;;7.60;;
17214;SDS011;8723;51.502;6.918;2023-02-01T02:00:43;17.98;;;9.25;;
17214;SDS011;8723;51.502;6.918;2023-02-01T02:03:11;17.30;;;9.23;;
17214;SDS011;8723;51.502;6.918;2023-02-01T02:05:40;19.75;;;8.70;;
17214;SDS011;8723;51.502;6.918;2023-02-01T02:08:09;19.63;;;8.98;;
17214;SDS011;8723;51.502;6.918;2023-02-01T02:10:36;19.05;;;8.98;;
17214;SDS011;8723;51.502;6.918;2023-02-01T02:13:22;17.73;;;7.50;;
17214;SDS011;8723;51.502;6.918;2023-02-01T02:15:51;18.20;;;8.10;;
17214;SDS011;8723;51.502;6.918;2023-02-01T02:18:25;14.00;;;6.93;;
17214;SDS011;8723;51.502;6.918;2023-02-01T02:21:09;17.50;;;7.50;;
17214;SDS011;8723;51.502;6.918;2023-02-01T02:26:29;15.85;;;7.45;;
17214;SDS011;8723;51.502;6.918;2023-02-01T02:34:29;17.55;;;7.30;;
17214;SDS011;8723;51.502;6.918;2023-02-01T02:37:00;17.95;;;7.20;;
17214;SDS011;8723;51.502;6.918;2023-02-01T02:39:33;16.40;;;6.85;;
17214;SDS011;8723;51.502;6.918;2023-02-01T02:42:04;14.43;;;7.23;;
17214;SDS011;8723;51.502;6.918;2023-02-01T02:44:54;15.30;;;6.70;;
17214;SDS011;8723;51.502;6.918;2023-02-01T02:47:42;16.58;;;6.60;;
17214;SDS011;8723;51.502;6.918;2023-02-01T02:50:15;13.20;;;6.00;;
17214;SDS011;8723;51.502;6.918;2023-02-01T02:53:00;17.27;;;6.38;;
17214;SDS011;8723;51.502;6.918;2023-02-01T02:55:46;17.65;;;5.93;;
17214;SDS011;8723;51.502;6.918;2023-02-01T02:58:14;17.95;;;7.65;;
17214;SDS011;8723;51.502;6.918;2023-02-01T03:01:00;20.37;;;8.60;;
17214;SDS011;8723;51.502;6.918;2023-02-01T03:03:46;15.48;;;7.28;;
17214;SDS011;8723;51.502;6.918;2023-02-01T03:06:33;16.42;;;6.75;;
17214;SDS011;8723;51.502;6.918;2023-02-01T03:09:03;16.58;;;7.03;;
17214;SDS011;8723;51.502;6.918;2023-02-01T03:11:31;16.42;;;6.80;;
17214;SDS011;8723;51.502;6.918;2023-02-01T03:14:13;16.97;;;6.73;;
17214;SDS011;8723;51.502;6.918;2023-02-01T03:16:41;16.13;;;6.53;;
17214;SDS011;8723;51.502;6.918;2023-02-01T03:19:11;17.98;;;6.45;;
17214;SDS011;8723;51.502;6.918;2023-02-01T03:21:40;16.27;;;6.18;;
17214;SDS011;8723;51.502;6.918;2023-02-01T03:24:09;17.00;;;6.82;;
17214;SDS011;8723;51.502;6.918;2023-02-01T03:26:39;17.42;;;6.50;;
17214;SDS011;8723;51.502;6.918;2023-02-01T03:29:09;16.13;;;5.97;;
17214;SDS011;8723;51.502;6.918;2023-02-01T03:31:38;15.18;;;5.80;;
17214;SDS011;8723;51.502;6.918;2023-02-01T03:34:05;19.98;;;6.25;;
17214;SDS011;8723;51.502;6.918;2023-02-01T03:36:34;19.52;;;6.07;;
17214;SDS011;8723;51.502;6.918;2023-02-01T03:39:03;17.33;;;5.93;;
17214;SDS011;8723;51.502;6.918;2023-02-01T03:41:34;15.68;;;5.75;;
17214;SDS011;8723;51.502;6.918;2023-02-01T03:44:04;17.70;;;5.90;;
17214;SDS011;8723;51.502;6.918;2023-02-01T03:46:34;22.38;;;6.43;;
17214;SDS011;8723;51.502;6.918;2023-02-01T03:49:03;18.50;;;6.53;;
17214;SDS011;8723;51.502;6.918;2023-02-01T03:51:31;17.77;;;7.13;;
17214;SDS011;8723;51.502;6.918;2023-02-01T03:53:59;16.67;;;6.45;;
17214;SDS011;8723;51.502;6.918;2023-02-01T03:56:28;17.40;;;6.20;;
17214;SDS011;8723;51.502;6.918;2023-02-01T03:58:58;17.73;;;6.40;;
17214;SDS011;8723;51.502;6.918;2023-02-01T04:01:25;17.13;;;6.10;;
17214;SDS011;8723;51.502;6.918;2023-02-01T04:03:53;16.77;;;6.53;;
17214;SDS011;8723;51.502;6.918;2023-02-01T04:06:20;18.42;;;6.60;;
17214;SDS011;8723;51.502;6.918;2023-02-01T04:08:47;14.35;;;5.55;;
17214;SDS011;8723;51.502;6.918;2023-02-01T04:11:14;17.85;;;6.13;;
17214;SDS011;8723;51.502;6.918;2023-02-01T04:13:41;17.53;;;6.10;;
17214;SDS011;8723;51.502;6.918;2023-02-01T04:16:10;18.05;;;6.25;;
17214;SDS011;8723;51.502;6.918;2023-02-01T04:18:37;20.35;;;6.00;;
17214;SDS011;8723;51.502;6.918;2023-02-01T04:21:04;20.85;;;6.38;;
17214;SDS011;8723;51.502;6.918;2023-02-01T04:23:32;14.90;;;5.50;;
17214;SDS011;8723;51.502;6.918;2023-02-01T04:25:59;18.05;;;5.60;;
17214;SDS011;8723;51.502;6.918;2023-02-01T04:28:27;16.02;;;5.57;;
17214;SDS011;8723;51.502;6.918;2023-02-01T04:30:54;16.63;;;5.73;;
17214;SDS011;8723;51.502;6.918;2023-02-01T04:33:23;14.40;;;5.63;;
17214;SDS011;8723;51.502;6.918;2023-02-01T04:35:50;15.73;;;5.43;;
17214;SDS011;8723;51.502;6.918;2023-02-01T04:38:17;15.98;;;5.50;;
17214;SDS011;8723;51.502;6.918;2023-02-01T04:40:46;17.70;;;6.30;;
17214;SDS011;8723;51.502;6.918;2023-02-01T04:43:13;17.35;;;5.88;;
17214;SDS011;8723;51.502;6.918;2023-02-01T04:45:40;19.35;;;6.55;;
17214;SDS011;8723;51.502;6.918;2023-02-01T04:48:07;16.40;;;6.00;;
17214;SDS011;8723;51.502;6.918;2023-02-01T04:50:36;18.60;;;6.07;;
17214;SDS011;8723;51.502;6.918;2023-02-01T04:53:03;16.33;;;5.97;;
17214;SDS011;8723;51.502;6.918;2023-02-01T04:55:30;16.98;;;5.55;;
17214;SDS011;8723;51.502;6.918;2023-02-01T04:57:57;17.03;;;6.30;;
17214;SDS011;8723;51.502;6.918;2023-02-01T05:00:24;22.05;;;6.68;;
17214;SDS011;8723;51.502;6.918;2023-02-01T05:02:51;19.80;;;6.50;;
17214;SDS011;8723;51.502;6.918;2023-02-01T05:05:18;23.00;;;6.53;;
17214;SDS011;8723;51.502;6.918;2023-02-01T05:07:47;18.60;;;5.97;;
17214;SDS011;8723;51.502;6.918;2023-02-01T05:10:14;17.40;;;6.05;;
17214;SDS011;8723;51.502;6.918;2023-02-01T05:12:42;14.80;;;5.45;;
17214;SDS011;8723;51.502;6.918;2023-02-01T05:15:27;18.48;;;6.32;;
17214;SDS011;8723;51.502;6.918;2023-02-01T05:17:54;14.68;;;5.50;;
17214;SDS011;8723;51.502;6.918;2023-02-01T05:20:21;18.70;;;6.68;;
17214;SDS011;8723;51.502;6.918;2023-02-01T05:22:50;17.10;;;5.88;;
17214;SDS011;8723;51.502;6.918;2023-02-01T05:25:17;17.25;;;5.90;;
17214;SDS011;8723;51.502;6.918;2023-02-01T05:27:44;20.27;;;5.63;;
17214;SDS011;8723;51.502;6.918;2023-02-01T05:30:11;18.50;;;6.00;;
17214;SDS011;8723;51.502;6.918;2023-02-01T05:32:39;12.18;;;4.47;;
17214;SDS011;8723;51.502;6.918;2023-02-01T05:35:06;17.27;;;6.07;;
17214;SDS011;8723;51.502;6.918;2023-02-01T05:37:34;21.13;;;6.80;;
17214;SDS011;8723;51.502;6.918;2023-02-01T05:40:02;15.55;;;5.80;;
17214;SDS011;8723;51.502;6.918;2023-02-01T05:42:29;15.07;;;5.60;;
17214;SDS011;8723;51.502;6.918;2023-02-01T05:44:57;16.25;;;6.00;;
17214;SDS011;8723;51.502;6.918;2023-02-01T05:47:24;20.08;;;6.05;;
17214;SDS011;8723;51.502;6.918;2023-02-01T05:49:51;18.13;;;5.90;;
17214;SDS011;8723;51.502;6.918;2023-02-01T05:52:18;17.60;;;5.53;;
17214;SDS011;8723;51.502;6.918;2023-02-01T05:54:45;16.33;;;6.20;;
17214;SDS011;8723;51.502;6.918;2023-02-01T05:57:14;19.17;;;6.22;;
17214;SDS011;8723;51.502;6.918;2023-02-01T05:59:41;20.50;;;6.87;;
17214;SDS011;8723;51.502;6.918;2023-02-01T06:02:09;16.95;;;5.78;;
17214;SDS011;8723;51.502;6.918;2023-02-01T06:04:37;21.45;;;6.40;;
17214;SDS011;8723;51.502;6.918;2023-02-01T06:07:04;18.20;;;6.00;;
17214;SDS011;8723;51.502;6.918;2023-02-01T06:09:32;13.38;;;4.95;;
17214;SDS011;8723;51.502;6.918;2023-02-01T06:11:59;18.10;;;6.37;;
17214;SDS011;8723;51.502;6.918;2023-02-01T06:14:28;21.25;;;5.97;;
17214;SDS011;8723;51.502;6.918;2023-02-01T06:16:55;18.77;;;5.53;;
17214;SDS011;8723;51.502;6.918;2023-02-01T06:19:22;19.00;;;5.78;;
17214;SDS011;8723;51.502;6.918;2023-02-01T06:21:50;17.98;;;5.57;;
17214;SDS011;8723;51.502;6.918;2023-02-01T06:24:17;15.55;;;5.25;;
17214;SDS011;8723;51.502;6.918;2023-02-01T06:26:44;18.97;;;5.90;;
17214;SDS011;8723;51.502;6.918;2023-02-01T06:29:12;16.85;;;5.75;;
17214;SDS011;8723;51.502;6.918;2023-02-01T06:31:40;18.55;;;6.07;;
17214;SDS011;8723;51.502;6.918;2023-02-01T06:34:08;16.75;;;5.72;;
17214;SDS011;8723;51.502;6.918;2023-02-01T06:36:36;19.20;;;5.68;;
17214;SDS011;8723;51.502;6.918;2023-02-01T06:39:03;16.10;;;5.53;;
17214;SDS011;8723;51.502;6.918;2023-02-01T06:41:30;22.15;;;5.80;;
17214;SDS011;8723;51.502;6.918;2023-02-01T06:43:59;18.10;;;5.50;;
17214;SDS011;8723;51.502;6.918;2023-02-01T06:46:26;14.60;;;5.22;;
17214;SDS011;8723;51.502;6.918;2023-02-01T06:48:55;19.33;;;6.30;;
17214;SDS011;8723;51.502;6.918;2023-02-01T06:51:22;19.20;;;6.25;;
17214;SDS011;8723;51.502;6.918;2023-02-01T06:53:50;18.95;;;6.40;;
17214;SDS011;8723;51.502;6.918;2023-02-01T06:56:17;14.77;;;6.20;;
17214;SDS011;8723;51.502;6.918;2023-02-01T06:58:45;17.83;;;6.47;;
17214;SDS011;8723;51.502;6.918;2023-02-01T07:01:12;18.53;;;6.50;;
17214;SDS011;8723;51.502;6.918;2023-02-01T07:03:39;15.13;;;5.90;;
17214;SDS011;8723;51.502;6.918;2023-02-01T07:06:08;16.02;;;5.70;;
17214;SDS011;8723;51.502;6.918;2023-02-01T07:08:36;19.02;;;6.63;;
17214;SDS011;8723;51.502;6.918;2023-02-01T07:11:04;19.30;;;6.88;;
17214;SDS011;8723;51.502;6.918;2023-02-01T07:13:31;19.52;;;6.13;;
17214;SDS011;8723;51.502;6.918;2023-02-01T07:15:59;19.13;;;6.60;;
17214;SDS011;8723;51.502;6.918;2023-02-01T07:18:26;19.85;;;6.13;;
17214;SDS011;8723;51.502;6.918;2023-02-01T07:20:54;17.75;;;6.50;;
17214;SDS011;8723;51.502;6.918;2023-02-01T07:23:23;15.60;;;5.60;;
17214;SDS011;8723;51.502;6.918;2023-02-01T07:25:52;19.23;;;5.95;;
17214;SDS011;8723;51.502;6.918;2023-02-01T07:28:19;18.73;;;6.43;;
17214;SDS011;8723;51.502;6.918;2023-02-01T07:30:46;18.25;;;6.50;;
17214;SDS011;8723;51.502;6.918;2023-02-01T07:33:16;17.45;;;5.80;;
17214;SDS011;8723;51.502;6.918;2023-02-01T07:35:43;20.92;;;6.80;;
17214;SDS011;8723;51.502;6.918;2023-02-01T07:38:10;20.27;;;6.13;;
17214;SDS011;8723;51.502;6.918;2023-02-01T07:40:38;20.17;;;6.43;;
17214;SDS011;8723;51.502;6.918;2023-02-01T07:43:06;21.75;;;6.65;;
17214;SDS011;8723;51.502;6.918;2023-02-01T07:45:33;20.52;;;7.07;;
17214;SDS011;8723;51.502;6.918;2023-02-01T07:48:01;20.10;;;6.33;;
17214;SDS011;8723;51.502;6.918;2023-02-01T07:50:28;20.55;;;8.00;;
17214;SDS011;8723;51.502;6.918;2023-02-01T07:52:56;18.77;;;6.68;;
17214;SDS011;8723;51.502;6.918;2023-02-01T07:55:24;17.92;;;6.53;;
17214;SDS011;8723;51.502;6.918;2023-02-01T07:57:53;20.97;;;6.87;;
17214;SDS011;8723;51.502;6.918;2023-02-01T08:00:23;19.92;;;6.75;;
17214;SDS011;8723;51.502;6.918;2023-02-01T08:03:08;23.35;;;7.50;;
17214;SDS011;8723;51.502;6.918;2023-02-01T08:05:35;17.23;;;6.00;;
17214;SDS011;8723;51.502;6.918;2023-02-01T08:08:02;23.95;;;7.93;;
17214;SDS011;8723;51.502;6.918;2023-02-01T08:10:30;21.65;;;7.38;;
17214;SDS011;8723;51.502;6.918;2023-02-01T08:12:59;21.00;;;7.22;;
17214;SDS011;8723;51.502;6.918;2023-02-01T08:15:26;18.75;;;6.60;;
17214;SDS011;8723;51.502;6.918;2023-02-01T08:17:53;19.85;;;6.50;;
17214;SDS011;8723;51.502;6.918;2023-02-01T08:20:22;17.33;;;6.82;;
17214;SDS011;8723;51.502;6.918;2023-02-01T08:22:50;17.05;;;6.15;;
17214;SDS011;8723;51.502;6.918;2023-02-01T08:25:17;22.58;;;6.82;;
17214;SDS011;8723;51.502;6.918;2023-02-01T08:27:44;19.48;;;6.55;;
17214;SDS011;8723;51.502;6.918;2023-02-01T08:30:13;22.30;;;7.22;;
17214;SDS011;8723;51.502;6.918;2023-02-01T08:32:40;21.05;;;6.97;;
17214;SDS011;8723;51.502;6.918;2023-02-01T08:35:08;22.67;;;7.47;;
17214;SDS011;8723;51.502;6.918;2023-02-01T08:37:35;17.33;;;6.50;;
17214;SDS011;8723;51.502;6.918;2023-02-01T08:40:02;18.05;;;6.55;;
17214;SDS011;8723;51.502;6.918;2023-02-01T08:42:30;20.05;;;7.00;;
17214;SDS011;8723;51.502;6.918;2023-02-01T08:45:16;17.15;;;6.20;;
17214;SDS011;8723;51.502;6.918;2023-02-01T08:47:44;21.95;;;6.65;;
17214;SDS011;8723;51.502;6.918;2023-02-01T08:50:13;19.08;;;6.63;;
17214;SDS011;8723;51.502;6.918;2023-02-01T08:52:40;19.20;;;6.40;;
17214;SDS011;8723;51.502;6.918;2023-02-01T08:55:08;23.30;;;6.70;;
17214;SDS011;8723;51.502;6.918;2023-02-01T08:57:35;19.88;;;7.38;;
17214;SDS011;8723;51.502;6.918;2023-02-01T09:00:03;20.15;;;7.43;;
17214;SDS011;8723;51.502;6.918;2023-02-01T09:02:32;18.38;;;6.80;;
17214;SDS011;8723;51.502;6.918;2023-02-01T09:05:01;18.42;;;6.00;;
17214;SDS011;8723;51.502;6.918;2023-02-01T09:07:29;18.75;;;5.90;;
17214;SDS011;8723;51.502;6.918;2023-02-01T09:09:56;18.05;;;6.50;;
17214;SDS011;8723;51.502;6.918;2023-02-01T09:12:25;20.77;;;6.27;;
17214;SDS011;8723;51.502;6.918;2023-02-01T09:14:52;19.35;;;6.75;;
17214;SDS011;8723;51.502;6.918;2023-02-01T09:17:20;17.77;;;6.40;;
17214;SDS011;8723;51.502;6.918;2023-02-01T09:19:48;19.88;;;6.32;;
17214;SDS011;8723;51.502;6.918;2023-02-01T09:22:15;18.50;;;6.20;;
17214;SDS011;8723;51.502;6.918;2023-02-01T09:24:42;22.60;;;7.22;;
17214;SDS011;8723;51.502;6.918;2023-02-01T09:27:09;21.88;;;7.43;;
17214;SDS011;8723;51.502;6.918;2023-02-01T09:29:37;22.30;;;7.03;;
17214;SDS011;8723;51.502;6.918;2023-02-01T09:32:04;18.15;;;6.93;;
17214;SDS011;8723;51.502;6.918;2023-02-01T09:34:31;17.20;;;6.55;;
17214;SDS011;8723;51.502;6.918;2023-02-01T09:37:00;19.58;;;6.40;;
17214;SDS011;8723;51.502;6.918;2023-02-01T09:39:27;17.58;;;6.32;;
17214;SDS011;8723;51.502;6.918;2023-02-01T09:41:57;18.23;;;6.67;;
17214;SDS011;8723;51.502;6.918;2023-02-01T09:44:36;18.20;;;7.22;;
17214;SDS011;8723;51.502;6.918;2023-02-01T09:47:10;20.23;;;7.00;;
17214;SDS011;8723;51.502;6.918;2023-02-01T09:49:39;23.15;;;8.10;;
17214;SDS011;8723;51.502;6.918;2023-02-01T09:52:12;20.00;;;7.03;;
17214;SDS011;8723;51.502;6.918;2023-02-01T09:54:40;20.55;;;7.45;;
17214;SDS011;8723;51.502;6.918;2023-02-01T09:57:11;18.45;;;7.22;;
17214;SDS011;8723;51.502;6.918;2023-02-01T09:59:41;17.63;;;7.13;;
17214;SDS011;8723;51.502;6.918;2023-02-01T10:02:11;17.75;;;6.90;;
17214;SDS011;8723;51.502;6.918;2023-02-01T10:04:39;18.40;;;6.18;;
17214;SDS011;8723;51.502;6.918;2023-02-01T10:07:09;21.60;;;6.68;;
17214;SDS011;8723;51.502;6.918;2023-02-01T10:15:15;22.10;;;6.85;;
17214;SDS011;8723;51.502;6.918;2023-02-01T10:17:49;18.70;;;6.25;;
17214;SDS011;8723;51.502;6.918;2023-02-01T10:20:19;16.10;;;6.30;;
17214;SDS011;8723;51.502;6.918;2023-02-01T10:22:53;17.42;;;6.68;;
17214;SDS011;8723;51.502;6.918;2023-02-01T10:25:26;18.95;;;6.90;;
17214;SDS011;8723;51.502;6.918;2023-02-01T10:27:53;19.00;;;6.32;;
17214;SDS011;8723;51.502;6.918;2023-02-01T10:30:22;16.25;;;6.43;;
17214;SDS011;8723;51.502;6.918;2023-02-01T10:32:55;19.95;;;6.72;;
17214;SDS011;8723;51.502;6.918;2023-02-01T10:35:24;13.93;;;5.68;;
17214;SDS011;8723;51.502;6.918;2023-02-01T10:37:53;15.23;;;5.53;;
17214;SDS011;8723;51.502;6.918;2023-02-01T10:40:21;17.88;;;6.45;;
17214;SDS011;8723;51.502;6.918;2023-02-01T10:42:48;20.27;;;6.82;;
17214;SDS011;8723;51.502;6.918;2023-02-01T10:45:17;18.35;;;6.78;;
17214;SDS011;8723;51.502;6.918;2023-02-01T10:47:45;16.27;;;6.88;;
17214;SDS011;8723;51.502;6.918;2023-02-01T10:50:16;16.25;;;6.22;;
17214;SDS011;8723;51.502;6.918;2023-02-01T10:52:45;17.42;;;6.30;;
17214;SDS011;8723;51.502;6.918;2023-02-01T10:55:32;19.13;;;6.53;;
17214;SDS011;8723;51.502;6.918;2023-02-01T10:58:00;14.55;;;5.63;;
17214;SDS011;8723;51.502;6.918;2023-02-01T11:00:28;20.48;;;6.88;;
17214;SDS011;8723;51.502;6.918;2023-02-01T11:02:56;16.13;;;5.88;;
17214;SDS011;8723;51.502;6.918;2023-02-01T11:05:24;16.33;;;6.30;;
17214;SDS011;8723;51.502;6.918;2023-02-01T11:07:52;18.73;;;6.53;;
17214;SDS011;8723;51.502;6.918;2023-02-01T11:10:34;14.40;;;6.30;;
17214;SDS011;8723;51.502;6.918;2023-02-01T11:13:02;16.58;;;6.20;;
17214;SDS011;8723;51.502;6.918;2023-02-01T11:15:30;13.68;;;5.57;;
17214;SDS011;8723;51.502;6.918;2023-02-01T11:18:07;16.95;;;6.20;;
17214;SDS011;8723;51.502;6.918;2023-02-01T11:20:40;18.33;;;6.40;;
17214;SDS011;8723;51.502;6.918;2023-02-01T11:23:12;17.40;;;6.30;;
17214;SDS011;8723;51.502;6.918;2023-02-01T11:25:46;17.45;;;6.20;;
17214;SDS011;8723;51.502;6.918;2023-02-01T11:28:14;16.25;;;6.30;;
17214;SDS011;8723;51.502;6.918;2023-02-01T11:30:42;18.63;;;6.40;;
17214;SDS011;8723;51.502;6.918;2023-02-01T11:33:13;17.90;;;6.43;;
17214;SDS011;8723;51.502;6.918;2023-02-01T11:35:41;19.30;;;6.50;;
17214;SDS011;8723;51.502;6.918;2023-02-01T11:38:19;15.68;;;6.20;;
17214;SDS011;8723;51.502;6.918;2023-02-01T11:40:47;16.25;;;6.10;;
17214;SDS011;8723;51.502;6.918;2023-02-01T11:43:16;16.60;;;6.20;;
17214;SDS011;8723;51.502;6.918;2023-02-01T11:45:53;18.55;;;6.07;;
17214;SDS011;8723;51.502;6.918;2023-02-01T11:48:21;20.50;;;6.20;;
17214;SDS011;8723;51.502;6.918;2023-02-01T11:50:51;15.75;;;5.88;;
17214;SDS011;8723;51.502;6.918;2023-02-01T11:53:25;21.17;;;6.47;;
17214;SDS011;8723;51.502;6.918;2023-02-01T11:55:56;17.73;;;6.25;;
17214;SDS011;8723;51.502;6.918;2023-02-01T11:58:40;20.80;;;6.63;;
17214;SDS011;8723;51.502;6.918;2023-02-01T12:01:22;18.80;;;5.85;;
17214;SDS011;8723;51.502;6.918;2023-02-01T12:04:06;19.42;;;6.45;;
17214;SDS011;8723;51.502;6.918;2023-02-01T12:06:37;15.97;;;5.80;;
17214;SDS011;8723;51.502;6.918;2023-02-01T12:09:11;16.10;;;6.15;;
17214;SDS011;8723;51.502;6.918;2023-02-01T12:11:43;19.42;;;6.20;;
17214;SDS011;8723;51.502;6.918;2023-02-01T12:14:16;18.23;;;6.40;;
17214;SDS011;8723;51.502;6.918;2023-02-01T12:16:48;21.88;;;7.53;;
17214;SDS011;8723;51.502;6.918;2023-02-01T12:19:28;15.25;;;5.97;;
17214;SDS011;8723;51.502;6.918;2023-02-01T12:22:00;22.15;;;7.20;;
17214;SDS011;8723;51.502;6.918;2023-02-01T12:24:36;21.77;;;7.13;;
17214;SDS011;8723;51.502;6.918;2023-02-01T12:27:13;17.08;;;6.72;;
17214;SDS011;8723;51.502;6.918;2023-02-01T12:29:48;15.32;;;5.97;;
17214;SDS011;8723;51.502;6.918;2023-02-01T12:32:22;20.15;;;6.80;;
17214;SDS011;8723;51.502;6.918;2023-02-01T12:35:04;17.25;;;6.63;;
17214;SDS011;8723;51.502;6.918;2023-02-01T12:37:39;16.80;;;6.65;;
17214;SDS011;8723;51.502;6.918;2023-02-01T12:40:14;18.00;;;6.45;;
17214;SDS011;8723;51.502;6.918;2023-02-01T12:42:47;17.52;;;7.13;;
17214;SDS011;8723;51.502;6.918;2023-02-01T12:45:26;17.55;;;6.10;;
17214;SDS011;8723;51.502;6.918;2023-02-01T12:47:57;15.00;;;5.82;;
17214;SDS011;8723;51.502;6.918;2023-02-01T12:50:29;18.33;;;5.70;;
17214;SDS011;8723;51.502;6.918;2023-02-01T12:53:01;17.98;;;5.40;;
17214;SDS011;8723;51.502;6.918;2023-02-01T12:55:32;13.68;;;5.18;;
17214;SDS011;8723;51.502;6.918;2023-02-01T12:58:03;16.95;;;5.45;;
17214;SDS011;8723;51.502;6.918;2023-02-01T13:00:32;18.40;;;5.65;;
17214;SDS011;8723;51.502;6.918;2023-02-01T13:03:03;16.33;;;5.22;;
17214;SDS011;8723;51.502;6.918;2023-02-01T13:05:36;13.35;;;5.00;;
17214;SDS011;8723;51.502;6.918;2023-02-01T13:08:09;16.13;;;5.15;;
17214;SDS011;8723;51.502;6.918;2023-02-01T13:10:38;17.27;;;5.35;;
17214;SDS011;8723;51.502;6.918;2023-02-01T13:13:09;20.40;;;5.50;;
17214;SDS011;8723;51.502;6.918;2023-02-01T13:15:39;14.88;;;5.47;;
17214;SDS011;8723;51.502;6.918;2023-02-01T13:18:06;20.95;;;7.18;;
17214;SDS011;8723;51.502;6.918;2023-02-01T13:20:42;14.52;;;5.60;;
17214;SDS011;8723;51.502;6.918;2023-02-01T13:23:14;22.37;;;8.13;;
17214;SDS011;8723;51.502;6.918;2023-02-01T13:25:43;15.65;;;5.97;;
17214;SDS011;8723;51.502;6.918;2023-02-01T13:28:14;14.32;;;5.50;;
17214;SDS011;8723;51.502;6.918;2023-02-01T13:30:51;14.35;;;5.25;;
17214;SDS011;8723;51.502;6.918;2023-02-01T13:33:34;14.27;;;4.82;;
17214;SDS011;8723;51.502;6.918;2023-02-01T13:36:10;17.90;;;5.18;;
17214;SDS011;8723;51.502;6.918;2023-02-01T13:38:56;13.90;;;5.03;;
17214;SDS011;8723;51.502;6.918;2023-02-01T13:41:29;21.45;;;5.93;;
17214;SDS011;8723;51.502;6.918;2023-02-01T13:43:58;10.27;;;4.30;;
17214;SDS011;8723;51.502;6.918;2023-02-01T13:46:26;14.52;;;4.97;;
17214;SDS011;8723;51.502;6.918;2023-02-01T13:48:55;15.77;;;4.97;;
17214;SDS011;8723;51.502;6.918;2023-02-01T13:51:36;15.10;;;4.95;;
17214;SDS011;8723;51.502;6.918;2023-02-01T13:54:04;16.05;;;5.30;;
17214;SDS011;8723;51.502;6.918;2023-02-01T13:56:39;13.90;;;4.80;;
17214;SDS011;8723;51.502;6.918;2023-02-01T14:01:48;19.63;;;6.22;;
17214;SDS011;8723;51.502;6.918;2023-02-01T14:06:59;15.90;;;5.93;;
17214;SDS011;8723;51.502;6.918;2023-02-01T14:09:32;15.68;;;6.47;;
17214;SDS011;8723;51.502;6.918;2023-02-01T14:14:48;18.65;;;6.60;;
17214;SDS011;8723;51.502;6.918;2023-02-01T14:22:50;17.67;;;6.40;;
17214;SDS011;8723;51.502;6.918;2023-02-01T14:25:17;12.60;;;5.35;;
17214;SDS011;8723;51.502;6.918;2023-02-01T14:27:45;13.77;;;7.13;;
17214;SDS011;8723;51.502;6.918;2023-02-01T14:30:14;16.67;;;6.90;;
17214;SDS011;8723;51.502;6.918;2023-02-01T14:32:42;21.60;;;7.27;;
17214;SDS011;8723;51.502;6.918;2023-02-01T14:35:17;16.90;;;7.93;;
17214;SDS011;8723;51.502;6.918;2023-02-01T14:37:45;13.88;;;6.78;;
17214;SDS011;8723;51.502;6.918;2023-02-01T14:40:17;14.73;;;5.90;;
17214;SDS011;8723;51.502;6.918;2023-02-01T14:42:47;21.00;;;8.88;;
17214;SDS011;8723;51.502;6.918;2023-02-01T14:50:42;18.92;;;9.05;;
17214;SDS011;8723;51.502;6.918;2023-02-01T14:53:17;16.63;;;7.30;;
17214;SDS011;8723;51.502;6.918;2023-02-01T14:55:48;14.57;;;6.05;;
17214;SDS011;8723;51.502;6.918;2023-02-01T14:58:27;14.38;;;5.43;;
17214;SDS011;8723;51.502;6.918;2023-02-01T15:00:57;16.33;;;5.63;;
17214;SDS011;8723;51.502;6.918;2023-02-01T15:06:20;19.00;;;5.85;;
17214;SDS011;8723;51.502;6.918;2023-02-01T15:08:48;11.77;;;5.00;;
17214;SDS011;8723;51.502;6.918;2023-02-01T15:11:17;11.73;;;4.78;;
17214;SDS011;8723;51.502;6.918;2023-02-01T15:13:48;14.98;;;5.45;;
17214;SDS011;8723;51.502;6.918;2023-02-01T15:16:16;15.40;;;5.38;;
17214;SDS011;8723;51.502;6.918;2023-02-01T15:18:43;15.68;;;5.80;;
17214;SDS011;8723;51.502;6.918;2023-02-01T15:21:15;18.08;;;5.32;;
17214;SDS011;8723;51.502;6.918;2023-02-01T15:23:42;13.00;;;4.93;;
17214;SDS011;8723;51.502;6.918;2023-02-01T15:26:10;13.98;;;5.45;;
17214;SDS011;8723;51.502;6.918;2023-02-01T15:28:39;14.50;;;5.80;;
17214;SDS011;8723;51.502;6.918;2023-02-01T15:31:06;15.43;;;5.22;;
17214;SDS011;8723;51.502;6.918;2023-02-01T15:33:33;15.25;;;4.93;;
17214;SDS011;8723;51.502;6.918;2023-02-01T15:36:07;14.77;;;4.90;;
17214;SDS011;8723;51.502;6.918;2023-02-01T15:38:36;17.48;;;5.35;;
17214;SDS011;8723;51.502;6.918;2023-02-01T15:41:05;15.57;;;5.57;;